Time;durP1;ratioP1;P1;durP2;ratioP2;P2;SDS_P1;SDS_P2;PMS_P1;PMS_P2;Temp;Humidity;BMP_temperature;BMP_pressure;BME280_temperature;BME280_humidity;BME280_pressure;Samples;Min_cycle;Max_cycle;Signal;HPM_P1;HPM_P2
2022/03/11 00:00:34;;;;;;;7.55;4.70;;;18.20;55.70;;;;;;4935125;28;20407;-72
2022/03/11 00:03:00;;;;;;;7.18;4.45;;;24.10;58.80;;;;;;4933591;29;20047;-72
2022/03/11 00:05:25;;;;;;;7.25;4.97;;;19.70;56.60;;;;;;4965406;28;20038;-71
2022/03/11 00:07:51;;;;;;;6.63;4.57;;;18.40;55.70;;;;;;4934967;29;20120;-71
2022/03/11 00:10:17;;;;;;;6.35;4.68;;;18.70;55.80;;;;;;4934664;29;20028;-71
2022/03/11 00:12:43;;;;;;;8.30;5.20;;;19.20;56.00;;;;;;4934652;29;20051;-71
2022/03/11 00:15:09;;;;;;;7.88;4.47;;;22.40;57.70;;;;;;4934859;29;20058;-71
2022/03/11 00:17:35;;;;;;;8.82;4.82;;;17.60;55.20;;;;;;4937447;29;20020;-71
2022/03/11 00:20:02;;;;;;;8.65;5.40;;;23.50;58.10;;;;;;4938460;29;20026;-71
2022/03/11 00:22:28;;;;;;;6.78;4.90;;;22.50;57.60;;;;;;4937441;29;20043;-72
2022/03/11 00:24:55;;;;;;;7.15;4.90;;;19.70;56.20;;;;;;4938067;29;20120;-71
2022/03/11 00:27:20;;;;;;;7.65;4.78;;;18.70;55.70;;;;;;4938129;29;20034;-72
2022/03/11 00:29:46;;;;;;;8.15;5.07;;;19.50;56.20;;;;;;4938017;29;20047;-72
2022/03/11 00:32:12;;;;;;;8.65;5.38;;;24.00;58.50;;;;;;4937198;29;20024;-72
2022/03/11 00:34:38;;;;;;;7.95;4.57;;;18.40;55.60;;;;;;4936831;29;20031;-72
2022/03/11 00:37:03;;;;;;;7.57;4.93;;;20.30;56.60;;;;;;4937987;29;20502;-71
2022/03/11 00:39:29;;;;;;;5.40;4.50;;;17.90;55.40;;;;;;4938051;29;20028;-71
2022/03/11 00:41:55;;;;;;;6.22;4.82;;;17.90;55.40;;;;;;4937071;29;20035;-72
2022/03/11 00:44:21;;;;;;;11.27;5.57;;;20.40;57.20;;;;;;4937956;28;20023;-72
2022/03/11 00:46:47;;;;;;;6.18;4.82;;;20.00;56.50;;;;;;4937660;29;20447;-72
2022/03/11 00:49:12;;;;;;;8.45;4.80;;;22.50;57.80;;;;;;4937864;28;20032;-72
2022/03/11 00:51:38;;;;;;;6.65;4.80;;;23.00;57.90;;;;;;4936857;29;20028;-72
2022/03/11 00:54:04;;;;;;;8.00;4.72;;;17.20;55.10;;;;;;4936189;29;20032;-72
2022/03/11 00:56:31;;;;;;;8.48;4.68;;;16.80;55.20;;;;;;4937390;29;20562;-72
2022/03/11 00:58:57;;;;;;;9.25;4.97;;;19.60;56.20;;;;;;4937655;29;20119;-71
2022/03/11 01:01:23;;;;;;;6.93;4.82;;;18.90;55.60;;;;;;4936642;29;20428;-72
2022/03/11 01:03:49;;;;;;;6.90;5.18;;;19.40;56.10;;;;;;4937385;29;20078;-72
2022/03/11 01:06:15;;;;;;;7.80;4.97;;;16.80;54.70;;;;;;4937007;29;20028;-71
2022/03/11 01:08:41;;;;;;;7.22;4.78;;;19.60;56.30;;;;;;4937535;29;20032;-72
2022/03/11 01:11:11;;;;;;;8.27;4.90;;;23.80;58.30;;;;;;4937211;29;20039;-72
2022/03/11 01:13:40;;;;;;;8.50;4.85;;;17.00;54.90;;;;;;4936931;29;20547;-72
2022/03/11 01:16:06;;;;;;;9.05;4.30;;;23.80;58.60;;;;;;4937115;29;20411;-72
2022/03/11 01:18:32;;;;;;;10.05;5.10;;;19.10;55.80;;;;;;4937064;29;20034;-70
2022/03/11 01:20:58;;;;;;;7.90;4.97;;;18.30;55.70;;;;;;4937420;29;20446;-69
2022/03/11 01:23:24;;;;;;;9.13;5.03;;;16.70;54.70;;;;;;4936456;29;20057;-69
2022/03/11 01:25:50;;;;;;;7.53;4.57;;;17.10;55.00;;;;;;4935826;29;20035;-70
2022/03/11 01:28:16;;;;;;;8.82;5.18;;;22.30;57.70;;;;;;4936324;28;20032;-70
2022/03/11 01:30:41;;;;;;;7.75;4.75;;;19.60;56.10;;;;;;4937266;29;20399;-69
2022/03/11 01:33:07;;;;;;;7.43;4.68;;;23.80;58.30;;;;;;4937155;28;20038;-69
2022/03/11 01:35:33;;;;;;;7.60;4.43;;;23.20;58.10;;;;;;4937066;28;20565;-69
2022/03/11 01:37:59;;;;;;;8.38;4.72;;;19.20;56.20;;;;;;4936593;29;20112;-69
2022/03/11 01:40:25;;;;;;;8.88;5.13;;;20.30;56.70;;;;;;4936847;29;20024;-70
2022/03/11 01:42:51;;;;;;;5.63;4.15;;;23.40;58.20;;;;;;4936661;29;20042;-70
2022/03/11 01:45:17;;;;;;;6.65;4.70;;;23.20;58.30;;;;;;4936876;29;20102;-70
2022/03/11 01:47:43;;;;;;;8.23;4.78;;;19.70;56.70;;;;;;4936672;29;20052;-70
2022/03/11 01:50:09;;;;;;;6.05;4.50;;;19.70;56.40;;;;;;4937229;28;20043;-70
2022/03/11 01:52:37;;;;;;;5.60;3.88;;;18.40;55.70;;;;;;4936560;29;20039;-70
2022/03/11 01:55:04;;;;;;;6.93;4.30;;;17.30;54.60;;;;;;4936704;29;20019;-70
2022/03/11 01:57:36;;;;;;;7.47;4.63;;;20.10;56.70;;;;;;4936365;29;20075;-70
2022/03/11 02:00:07;;;;;;;8.70;4.50;;;23.00;56.40;;;;;;4936690;29;20490;-71
2022/03/11 02:02:33;;;;;;;7.78;4.35;;;20.60;55.30;;;;;;4936301;29;20035;-70
2022/03/11 02:05:00;;;;;;;7.90;4.13;;;19.30;56.30;;;;;;4966855;28;20040;-70
2022/03/11 02:07:26;;;;;;;7.13;4.53;;;16.80;54.90;;;;;;4936160;29;20038;-69
2022/03/11 02:09:53;;;;;;;6.50;4.35;;;24.00;58.40;;;;;;4936700;29;20024;-70
2022/03/11 02:12:34;;;;;;;7.82;4.38;;;17.00;54.50;;;;;;4935399;29;20035;-70
2022/03/11 02:15:08;;;;;;;7.05;4.40;;;20.30;54.00;;;;;;4936137;29;20016;-70
2022/03/11 02:17:34;;;;;;;7.07;4.13;;;18.80;54.00;;;;;;4934702;29;20040;-70
2022/03/11 02:20:00;;;;;;;5.65;3.97;;;23.30;58.00;;;;;;4936503;29;20424;-70
2022/03/11 02:22:27;;;;;;;6.18;4.07;;;19.40;56.40;;;;;;4935640;28;20114;-70
2022/03/11 02:24:53;;;;;;;4.97;3.72;;;18.30;55.60;;;;;;4935997;29;20414;-70
2022/03/11 02:27:20;;;;;;;6.28;4.15;;;17.70;55.50;;;;;;4935734;29;20034;-70
2022/03/11 02:29:46;;;;;;;5.53;3.42;;;20.50;56.90;;;;;;4935893;29;20028;-70
2022/03/11 02:32:12;;;;;;;7.50;3.85;;;17.20;55.50;;;;;;4935140;29;20062;-69
2022/03/11 02:34:38;;;;;;;6.05;4.03;;;18.20;55.80;;;;;;4936260;28;20079;-69
2022/03/11 02:37:05;;;;;;;7.88;3.85;;;18.90;56.10;;;;;;4935546;29;20032;-70
2022/03/11 02:39:30;;;;;;;6.05;3.55;;;16.90;54.90;;;;;;4934888;29;20499;-72
2022/03/11 02:41:57;;;;;;;6.93;3.88;;;24.30;59.00;;;;;;4933703;29;20031;-72
2022/03/11 02:44:24;;;;;;;6.03;4.15;;;23.30;58.40;;;;;;4935593;29;20032;-72
2022/03/11 02:46:50;;;;;;;7.07;4.18;;;16.90;55.20;;;;;;4935869;29;20031;-72
2022/03/11 02:49:16;;;;;;;6.10;3.97;;;20.10;56.80;;;;;;4935335;29;20035;-71
2022/03/11 02:51:42;;;;;;;5.90;3.88;;;20.00;57.00;;;;;;4935055;29;20032;-72
2022/03/11 02:54:07;;;;;;;9.00;3.95;;;24.20;59.00;;;;;;4935448;29;20518;-72
2022/03/11 02:56:33;;;;;;;5.25;3.75;;;22.30;58.00;;;;;;4935606;29;20038;-72
2022/03/11 02:58:59;;;;;;;7.45;3.95;;;17.40;55.60;;;;;;4935163;29;20023;-72
2022/03/11 03:01:25;;;;;;;8.77;3.50;;;23.80;58.90;;;;;;4934781;29;20038;-72
2022/03/11 03:03:50;;;;;;;6.55;3.97;;;23.60;58.70;;;;;;4934997;29;20047;-72
2022/03/11 03:06:16;;;;;;;5.28;3.53;;;20.30;56.90;;;;;;4935221;29;20028;-72
2022/03/11 03:08:42;;;;;;;6.45;3.80;;;20.50;56.90;;;;;;4935217;29;20499;-72
2022/03/11 03:11:08;;;;;;;6.15;3.60;;;17.60;55.50;;;;;;4935855;29;20435;-71
2022/03/11 03:13:34;;;;;;;5.10;3.55;;;24.20;58.90;;;;;;4934571;29;20024;-72
2022/03/11 03:16:00;;;;;;;7.53;3.85;;;24.30;58.70;;;;;;4935525;29;20051;-72
2022/03/11 03:18:25;;;;;;;7.22;3.65;;;18.30;55.80;;;;;;4935020;29;20028;-72
2022/03/11 03:20:51;;;;;;;5.55;3.50;;;18.90;56.00;;;;;;4935377;29;20034;-72
2022/03/11 03:23:17;;;;;;;6.82;4.00;;;20.00;56.50;;;;;;4935162;29;20020;-72
2022/03/11 03:25:43;;;;;;;8.15;3.92;;;24.20;58.60;;;;;;4935031;29;20043;-72
2022/03/11 03:28:09;;;;;;;6.97;3.92;;;22.40;57.70;;;;;;4935176;29;20032;-72
2022/03/11 03:30:35;;;;;;;7.75;3.80;;;19.70;56.40;;;;;;4934864;29;20132;-72
2022/03/11 03:33:03;;;;;;;5.22;3.72;;;19.10;56.00;;;;;;4935173;29;20484;-72
2022/03/11 03:35:29;;;;;;;6.80;3.67;;;23.40;57.00;;;;;;4934697;28;20111;-72
2022/03/11 03:37:55;;;;;;;7.80;3.55;;;20.20;56.80;;;;;;4935192;29;20131;-72
2022/03/11 03:40:20;;;;;;;6.07;3.75;;;17.70;55.30;;;;;;4935110;28;20028;-72
2022/03/11 03:42:47;;;;;;;7.75;4.32;;;22.90;58.20;;;;;;4935026;29;20032;-72
2022/03/11 03:45:14;;;;;;;6.20;4.13;;;17.50;55.00;;;;;;4934850;29;20040;-72
2022/03/11 03:47:40;;;;;;;5.85;3.97;;;20.30;56.50;;;;;;4935219;29;20111;-72
2022/03/11 03:50:06;;;;;;;6.53;3.55;;;19.90;56.40;;;;;;4935580;29;20151;-72
2022/03/11 03:52:33;;;;;;;6.90;3.55;;;22.80;57.70;;;;;;4938655;29;20087;-72
2022/03/11 03:54:59;;;;;;;3.92;3.10;;;20.00;56.80;;;;;;4938529;29;20031;-72
2022/03/11 03:57:26;;;;;;;5.53;3.50;;;22.60;58.00;;;;;;4938993;29;20102;-72
2022/03/11 03:59:52;;;;;;;4.90;3.25;;;24.10;58.80;;;;;;4938380;28;20043;-72
2022/03/11 04:02:18;;;;;;;6.53;3.35;;;19.90;56.40;;;;;;4938094;29;20028;-72
2022/03/11 04:04:44;;;;;;;6.78;3.83;;;23.70;58.40;;;;;;4938060;28;20427;-72
2022/03/11 04:07:09;;;;;;;5.75;3.60;;;19.60;56.20;;;;;;4938591;28;20510;-72
2022/03/11 04:09:35;;;;;;;8.90;3.80;;;19.30;56.40;;;;;;4938627;28;20035;-72
2022/03/11 04:12:01;;;;;;;5.63;3.13;;;17.10;55.00;;;;;;4968826;28;20068;-72
2022/03/11 04:14:27;;;;;;;7.93;4.30;;;17.70;55.00;;;;;;4938119;29;20134;-72
2022/03/11 04:16:53;;;;;;;5.00;3.08;;;23.80;58.30;;;;;;4938445;29;20102;-72
2022/03/11 04:19:19;;;;;;;5.15;3.40;;;23.80;58.10;;;;;;4938186;29;20016;-72
2022/03/11 04:21:44;;;;;;;5.80;3.50;;;19.10;56.00;;;;;;4937942;28;20091;-72
2022/03/11 04:24:14;;;;;;;5.60;3.65;;;18.80;55.80;;;;;;4938014;29;20031;-71
2022/03/11 04:26:44;;;;;;;6.18;3.58;;;23.70;57.80;;;;;;4938003;29;20034;-72
2022/03/11 04:29:13;;;;;;;5.35;3.80;;;18.10;53.90;;;;;;4938358;29;20106;-72
2022/03/11 04:31:39;;;;;;;6.40;3.38;;;20.40;55.30;;;;;;4937637;29;20024;-72
2022/03/11 04:34:05;;;;;;;5.93;3.80;;;17.30;54.90;;;;;;4938007;29;20020;-72
2022/03/11 04:36:33;;;;;;;5.65;3.72;;;20.00;56.40;;;;;;4937777;29;20491;-71
2022/03/11 04:39:00;;;;;;;5.57;3.60;;;20.00;56.30;;;;;;4938129;29;20028;-71
2022/03/11 04:41:26;;;;;;;7.32;3.75;;;23.10;57.20;;;;;;4937151;29;20031;-72
2022/03/11 04:43:52;;;;;;;5.43;3.70;;;17.00;54.60;;;;;;4937760;29;20028;-72
2022/03/11 04:46:18;;;;;;;5.45;3.65;;;20.20;56.30;;;;;;4936664;29;20031;-72
2022/03/11 04:48:46;;;;;;;4.90;3.50;;;23.50;57.80;;;;;;4937804;29;20086;-71
2022/03/11 04:51:13;;;;;;;7.50;3.75;;;19.10;55.60;;;;;;4937250;29;20027;-72
2022/03/11 04:53:39;;;;;;;6.28;3.78;;;19.50;55.40;;;;;;4937225;29;20028;-71
2022/03/11 04:56:05;;;;;;;5.90;3.60;;;17.20;54.50;;;;;;4937717;29;20024;-72
2022/03/11 04:58:31;;;;;;;6.00;3.60;;;17.00;54.50;;;;;;4938024;29;20032;-72
2022/03/11 05:00:57;;;;;;;6.10;3.70;;;20.40;56.40;;;;;;4937559;29;20035;-72
2022/03/11 05:03:22;;;;;;;7.35;4.03;;;19.80;55.90;;;;;;4936060;29;20643;-72
2022/03/11 05:05:48;;;;;;;6.07;3.70;;;24.30;58.10;;;;;;4935855;29;20035;-73
2022/03/11 05:08:14;;;;;;;8.68;4.05;;;19.80;56.00;;;;;;4937533;29;20403;-73
2022/03/11 05:10:40;;;;;;;6.00;3.20;;;19.00;55.40;;;;;;4937227;29;20521;-72
2022/03/11 05:13:06;;;;;;;7.00;3.65;;;17.50;54.70;;;;;;4937244;29;20032;-73
2022/03/11 05:15:32;;;;;;;6.88;3.55;;;20.30;56.30;;;;;;4934039;29;20439;-73
2022/03/11 05:17:57;;;;;;;5.63;3.83;;;22.20;57.10;;;;;;4937015;29;20381;-73
2022/03/11 05:20:23;;;;;;;7.53;4.00;;;22.50;57.40;;;;;;4936780;29;20036;-72
2022/03/11 05:22:50;;;;;;;5.07;3.63;;;23.30;57.80;;;;;;4937400;29;20039;-72
2022/03/11 05:25:16;;;;;;;8.68;3.90;;;19.80;55.90;;;;;;4936868;29;20087;-73
2022/03/11 05:27:42;;;;;;;5.57;3.95;;;19.40;55.60;;;;;;4937079;29;20102;-73
2022/03/11 05:30:09;;;;;;;7.85;4.07;;;23.60;57.80;;;;;;4937012;29;20499;-73
2022/03/11 05:32:46;;;;;;;9.95;4.05;;;20.10;55.50;;;;;;4937120;29;20399;-72
2022/03/11 05:35:14;;;;;;;7.30;3.72;;;20.70;54.10;;;;;;4937029;29;20023;-72
2022/03/11 05:37:40;;;;;;;6.82;3.83;;;19.90;55.30;;;;;;4936645;29;20028;-72
2022/03/11 05:40:07;;;;;;;5.55;3.97;;;23.40;57.80;;;;;;4935590;29;20067;-72
2022/03/11 05:42:33;;;;;;;5.55;3.58;;;16.90;54.20;;;;;;4936807;29;20043;-72
2022/03/11 05:44:58;;;;;;;6.63;3.90;;;17.80;55.10;;;;;;4935438;29;20068;-72
2022/03/11 05:47:24;;;;;;;6.13;4.25;;;19.50;56.00;;;;;;4936500;29;20035;-72
2022/03/11 05:49:50;;;;;;;7.18;4.38;;;18.60;55.30;;;;;;4936424;29;20028;-72
2022/03/11 05:52:16;;;;;;;8.82;4.32;;;19.70;56.00;;;;;;4935679;29;20030;-72
2022/03/11 05:54:42;;;;;;;6.18;4.10;;;23.60;58.10;;;;;;4936760;28;20032;-72
2022/03/11 05:57:07;;;;;;;7.68;3.83;;;20.00;56.00;;;;;;4936211;28;20399;-72
2022/03/11 05:59:34;;;;;;;6.43;4.13;;;23.50;58.00;;;;;;4936787;28;20071;-72
2022/03/11 06:02:00;;;;;;;6.68;4.20;;;24.20;58.40;;;;;;4935719;29;20135;-72
2022/03/11 06:04:26;;;;;;;8.63;4.30;;;17.00;54.50;;;;;;4935982;28;20043;-72
2022/03/11 06:06:52;;;;;;;8.63;4.32;;;23.40;57.80;;;;;;4935962;28;20495;-72
2022/03/11 06:09:18;;;;;;;7.55;4.22;;;20.20;56.50;;;;;;4936367;28;20035;-72
2022/03/11 06:11:43;;;;;;;7.78;4.07;;;19.50;55.70;;;;;;4935426;29;20452;-72
2022/03/11 06:14:09;;;;;;;6.38;4.20;;;23.60;57.80;;;;;;4935161;29;20107;-72
2022/03/11 06:16:35;;;;;;;5.45;4.20;;;19.50;55.90;;;;;;4935777;28;20034;-72
2022/03/11 06:19:03;;;;;;;6.70;4.57;;;22.30;57.40;;;;;;4936436;28;20058;-72
2022/03/11 06:21:29;;;;;;;6.32;4.18;;;20.30;55.00;;;;;;4935197;29;20036;-72
2022/03/11 06:23:56;;;;;;;6.47;4.15;;;23.10;57.80;;;;;;4966591;28;20035;-72
2022/03/11 06:26:22;;;;;;;5.97;4.28;;;24.10;58.20;;;;;;4935921;28;20035;-72
2022/03/11 06:28:48;;;;;;;7.38;3.97;;;22.70;57.50;;;;;;4935866;29;20032;-72
2022/03/11 06:31:14;;;;;;;5.95;3.83;;;16.80;54.40;;;;;;4935896;29;20554;-70
2022/03/11 06:33:40;;;;;;;6.63;4.10;;;17.20;54.70;;;;;;4935170;29;20118;-70
2022/03/11 06:36:06;;;;;;;6.13;4.20;;;17.90;55.00;;;;;;4935751;28;20414;-70
2022/03/11 06:38:32;;;;;;;6.43;4.20;;;17.20;55.30;;;;;;4935554;29;20106;-71
2022/03/11 06:40:58;;;;;;;8.27;3.97;;;19.70;57.20;;;;;;4935708;29;20103;-70
2022/03/11 06:43:23;;;;;;;7.75;4.25;;;17.20;55.90;;;;;;4935048;29;20043;-70
2022/03/11 06:45:50;;;;;;;5.20;3.67;;;23.70;59.20;;;;;;4935838;28;20046;-70
2022/03/11 06:48:18;;;;;;;5.93;3.92;;;19.00;56.10;;;;;;4935214;29;20039;-70
2022/03/11 06:50:44;;;;;;;4.82;3.65;;;23.80;59.00;;;;;;4934225;29;20440;-70
2022/03/11 06:53:10;;;;;;;7.28;4.40;;;18.60;56.70;;;;;;4933904;29;20063;-70
2022/03/11 06:55:36;;;;;;;8.52;4.80;;;19.70;56.10;;;;;;4935909;29;20368;-70
2022/03/11 06:58:02;;;;;;;8.05;4.40;;;23.60;57.90;;;;;;4935399;29;20051;-70
2022/03/11 07:00:28;;;;;;;6.38;4.38;;;18.70;55.30;;;;;;4935801;29;20023;-71
2022/03/11 07:02:54;;;;;;;6.50;4.85;;;22.40;57.10;;;;;;4934928;29;20023;-71
2022/03/11 07:05:19;;;;;;;6.88;4.40;;;18.40;55.10;;;;;;4935226;29;20542;-70
2022/03/11 07:07:46;;;;;;;5.72;4.32;;;16.90;54.30;;;;;;4935320;29;20495;-70
2022/03/11 07:10:12;;;;;;;9.63;4.90;;;23.60;57.70;;;;;;4935360;29;20056;-70
2022/03/11 07:12:38;;;;;;;6.10;4.28;;;17.80;54.60;;;;;;4935151;29;20403;-70
2022/03/11 07:15:05;;;;;;;6.28;4.25;;;18.00;54.40;;;;;;4935257;29;20059;-70
2022/03/11 07:17:31;;;;;;;7.82;4.38;;;19.90;55.40;;;;;;4934937;29;20019;-70
2022/03/11 07:19:57;;;;;;;7.93;4.47;;;23.50;57.60;;;;;;4935441;29;20074;-70
2022/03/11 07:22:23;;;;;;;9.25;5.22;;;23.50;57.60;;;;;;4934608;29;20040;-70
2022/03/11 07:24:49;;;;;;;6.38;4.63;;;16.80;53.90;;;;;;4934621;29;20023;-70
2022/03/11 07:27:15;;;;;;;7.60;4.78;;;19.60;55.50;;;;;;4934938;29;20114;-70
2022/03/11 07:29:41;;;;;;;7.47;4.75;;;19.60;55.50;;;;;;4934967;28;20031;-70
2022/03/11 07:32:08;;;;;;;8.25;4.45;;;18.40;54.90;;;;;;4934643;29;20396;-70
2022/03/11 07:34:34;;;;;;;7.60;4.50;;;18.90;54.90;;;;;;4934896;28;20039;-70
2022/03/11 07:37:02;;;;;;;7.28;5.03;;;23.70;57.50;;;;;;4935187;28;20107;-70
2022/03/11 07:39:28;;;;;;;7.82;4.90;;;23.70;57.60;;;;;;4930045;29;20308;-70
2022/03/11 07:41:54;;;;;;;8.82;4.55;;;17.80;54.60;;;;;;4934128;29;20410;-70
2022/03/11 07:44:20;;;;;;;8.77;4.40;;;19.60;55.70;;;;;;4934670;29;20038;-70
2022/03/11 07:46:46;;;;;;;6.53;4.45;;;17.70;54.90;;;;;;4934795;29;20028;-70
2022/03/11 07:49:12;;;;;;;8.57;4.60;;;17.30;54.30;;;;;;4934615;29;20034;-70
2022/03/11 07:51:38;;;;;;;6.72;4.43;;;17.00;54.10;;;;;;4934153;29;20090;-70
2022/03/11 07:54:04;;;;;;;10.40;4.60;;;19.00;55.10;;;;;;4934531;29;20028;-70
2022/03/11 07:56:30;;;;;;;7.30;4.93;;;16.80;53.90;;;;;;4935272;29;20020;-70
2022/03/11 07:58:56;;;;;;;8.57;4.78;;;19.40;55.30;;;;;;4934667;29;20383;-70
2022/03/11 08:01:22;;;;;;;6.82;4.90;;;19.40;55.40;;;;;;4933187;29;20451;-70
2022/03/11 08:03:48;;;;;;;7.45;4.57;;;19.40;55.20;;;;;;4913712;29;20067;-70
2022/03/11 08:06:15;;;;;;;7.95;5.05;;;18.40;55.00;;;;;;4915536;29;20079;-71
2022/03/11 08:08:42;;;;;;;6.97;4.90;;;18.60;54.80;;;;;;4915204;29;20084;-70
2022/03/11 08:11:08;;;;;;;6.75;4.13;;;19.50;55.50;;;;;;4915163;29;20043;-71
2022/03/11 08:13:36;;;;;;;7.20;4.50;;;19.60;55.50;;;;;;4923527;28;20722;-74
2022/03/11 08:16:06;;;;;;;7.38;4.50;;;18.20;52.90;;;;;;4925429;29;20027;-73
2022/03/11 08:18:32;;;;;;;7.30;4.50;;;19.60;53.60;;;;;;4924652;29;20469;-74
2022/03/11 08:21:01;;;;;;;8.35;4.72;;;23.10;55.90;;;;;;4922116;29;20115;-73
2022/03/11 08:23:28;;;;;;;10.30;4.60;;;20.00;54.40;;;;;;4930032;28;20439;-72
2022/03/11 08:25:54;;;;;;;8.10;4.63;;;23.40;56.00;;;;;;4920477;28;20031;-72
2022/03/11 08:28:22;;;;;;;9.30;4.50;;;21.00;55.30;;;;;;4926155;29;20130;-73
2022/03/11 08:30:48;;;;;;;9.38;4.20;;;21.20;55.70;;;;;;4927411;29;20406;-72
2022/03/11 08:33:20;;;;;;;6.90;4.38;;;20.10;55.00;;;;;;4925059;29;20110;-74
2022/03/11 08:35:50;;;;;;;7.82;4.40;;;19.40;54.60;;;;;;4925152;29;20471;-74
2022/03/11 08:38:16;;;;;;;8.98;4.20;;;17.70;53.60;;;;;;4928110;28;20060;-72
2022/03/11 08:40:43;;;;;;;7.28;4.15;;;21.40;55.90;;;;;;4930976;29;20024;-75
2022/03/11 08:43:09;;;;;;;10.38;4.82;;;19.80;55.10;;;;;;4931213;29;20035;-72
2022/03/11 08:45:35;;;;;;;6.80;4.43;;;18.00;54.10;;;;;;4932386;29;20102;-72
2022/03/11 08:48:01;;;;;;;7.90;4.65;;;17.90;53.80;;;;;;4931004;29;20039;-74
2022/03/11 08:50:27;;;;;;;6.13;4.10;;;21.30;55.40;;;;;;4930311;29;20035;-71
2022/03/11 08:52:53;;;;;;;6.90;4.03;;;20.30;55.00;;;;;;4936001;28;20422;-72
2022/03/11 08:55:19;;;;;;;7.25;4.10;;;19.60;54.50;;;;;;4924869;29;20525;-72
2022/03/11 08:57:49;;;;;;;6.65;4.13;;;19.20;54.20;;;;;;4929642;29;20034;-72
2022/03/11 09:00:17;;;;;;;7.60;4.47;;;20.40;54.90;;;;;;4929549;29;20057;-72
2022/03/11 09:02:44;;;;;;;6.80;4.00;;;20.80;54.80;;;;;;4929690;29;20047;-72
2022/03/11 09:05:10;;;;;;;6.03;3.92;;;17.80;53.40;;;;;;4928558;29;20051;-72
2022/03/11 09:07:36;;;;;;;7.57;3.90;;;21.10;55.40;;;;;;4928083;29;20040;-72
2022/03/11 09:10:05;;;;;;;5.60;4.15;;;20.50;55.00;;;;;;4930025;29;20027;-73
2022/03/11 09:12:34;;;;;;;6.07;3.38;;;20.00;54.10;;;;;;4931392;29;20522;-71
2022/03/11 09:15:00;;;;;;;7.15;4.05;;;21.60;55.70;;;;;;4929905;29;20036;-72
2022/03/11 09:17:25;;;;;;;6.28;4.20;;;18.40;54.00;;;;;;4931998;29;20032;-72
2022/03/11 09:19:51;;;;;;;6.30;3.88;;;17.60;53.90;;;;;;4930005;29;20039;-72
2022/03/11 09:22:17;;;;;;;5.22;3.50;;;20.00;55.00;;;;;;4928564;29;20047;-72
2022/03/11 09:24:46;;;;;;;7.05;4.20;;;21.60;55.80;;;;;;4929455;29;20042;-72
2022/03/11 09:27:13;;;;;;;9.00;3.78;;;21.30;54.90;;;;;;4930031;29;20126;-73
2022/03/11 09:29:40;;;;;;;4.82;3.50;;;20.80;55.50;;;;;;4934988;29;20030;-72
2022/03/11 09:32:07;;;;;;;3.88;3.25;;;24.50;57.40;;;;;;4935499;29;20031;-72
2022/03/11 09:34:34;;;;;;;5.47;3.47;;;22.00;56.10;;;;;;4935804;29;20027;-73
2022/03/11 09:37:00;;;;;;;12.02;4.05;;;20.60;55.50;;;;;;4933829;29;20019;-74
2022/03/11 09:39:27;;;;;;;5.63;3.55;;;21.80;56.30;;;;;;4928102;28;20036;-73
2022/03/11 09:41:53;;;;;;;7.05;3.78;;;18.50;54.60;;;;;;4929235;29;20036;-73
2022/03/11 09:44:20;;;;;;;6.82;3.92;;;20.80;56.00;;;;;;4929404;29;20502;-74
2022/03/11 09:46:47;;;;;;;4.35;3.25;;;19.40;54.80;;;;;;4927542;29;20115;-73
2022/03/11 09:49:14;;;;;;;7.57;3.80;;;17.80;54.30;;;;;;4927252;29;20046;-73
2022/03/11 09:51:41;;;;;;;5.63;3.67;;;22.20;56.60;;;;;;4928557;29;20052;-74
2022/03/11 09:54:11;;;;;;;9.63;4.60;;;21.70;56.00;;;;;;4928240;29;20051;-74
2022/03/11 09:56:42;;;;;;;5.30;3.60;;;18.30;54.50;;;;;;4926058;29;20051;-74
2022/03/11 09:59:09;;;;;;;4.63;3.72;;;21.00;54.60;;;;;;4928924;29;20032;-73
2022/03/11 10:01:35;;;;;;;5.95;3.80;;;20.00;55.00;;;;;;4929037;29;20144;-74
2022/03/11 10:04:05;;;;;;;7.93;4.25;;;19.40;55.10;;;;;;4927768;29;20051;-73
2022/03/11 10:06:45;;;;;;;5.97;4.40;;;19.00;53.80;;;;;;4926508;28;20122;-73
2022/03/11 10:09:17;;;;;;;5.85;3.50;;;21.30;53.60;;;;;;4926046;29;20054;-71
2022/03/11 10:11:43;;;;;;;6.18;4.10;;;23.90;55.60;;;;;;4929275;28;20448;-75
2022/03/11 10:14:09;;;;;;;7.22;4.03;;;20.80;55.90;;;;;;4926112;29;20047;-73
2022/03/11 10:16:36;;;;;;;5.47;3.58;;;20.50;55.80;;;;;;4927454;29;20403;-74
2022/03/11 10:19:08;;;;;;;6.30;3.83;;;21.90;56.30;;;;;;4926603;29;20116;-73
2022/03/11 10:21:35;;;;;;;9.00;4.10;;;22.40;55.20;;;;;;4924474;29;20035;-73
2022/03/11 10:24:03;;;;;;;6.47;4.38;;;20.70;55.20;;;;;;4933800;29;20042;-73
2022/03/11 10:26:39;;;;;;;7.75;4.38;;;19.40;54.90;;;;;;4940174;29;20063;-73
2022/03/11 10:29:30;;;;;;;8.45;4.18;;;23.40;54.90;;;;;;4927706;29;20047;-74
2022/03/11 10:31:57;;;;;;;6.90;4.47;;;19.40;54.40;;;;;;4928482;29;20028;-74
2022/03/11 10:34:31;;;;;;;5.85;3.58;;;19.20;55.20;;;;;;4927857;28;20031;-72
2022/03/11 10:37:01;;;;;;;5.13;3.88;;;22.50;55.00;;;;;;4930392;29;20039;-73
2022/03/11 10:39:32;;;;;;;4.88;3.85;;;20.60;55.10;;;;;;4948906;28;20083;-72
2022/03/11 10:42:13;;;;;;;7.53;3.92;;;22.20;56.70;;;;;;4927475;29;20035;-74
2022/03/11 10:45:02;;;;;;;7.38;4.15;;;21.60;55.80;;;;;;4951712;28;20038;-73
2022/03/11 10:47:29;;;;;;;5.30;3.80;;;22.50;54.40;;;;;;4924388;29;20554;-73
2022/03/11 10:49:58;;;;;;;5.72;3.70;;;19.50;55.40;;;;;;4930313;28;20075;-72
2022/03/11 10:52:39;;;;;;;7.43;3.90;;;20.20;55.20;;;;;;4927383;29;20048;-72
2022/03/11 10:55:18;;;;;;;8.23;4.05;;;21.40;54.30;;;;;;4927474;29;20036;-72
2022/03/11 10:57:46;;;;;;;6.25;4.10;;;21.30;54.00;;;;;;4945996;28;20503;-72
2022/03/11 11:00:25;;;;;;;5.45;3.63;;;23.50;57.60;;;;;;4925205;28;20044;-74
2022/03/11 11:02:55;;;;;;;8.68;4.47;;;21.10;54.30;;;;;;4927501;29;20031;-74
2022/03/11 11:05:22;;;;;;;8.98;4.20;;;19.10;54.50;;;;;;4925864;28;20130;-73
2022/03/11 11:07:48;;;;;;;7.05;3.75;;;22.60;57.00;;;;;;4928273;28;20067;-73
2022/03/11 11:10:16;;;;;;;7.13;4.07;;;18.60;55.00;;;;;;4925505;28;20541;-73
2022/03/11 11:12:43;;;;;;;8.98;3.97;;;21.40;56.10;;;;;;4922035;29;20452;-74
2022/03/11 11:15:10;;;;;;;7.90;3.70;;;21.00;56.20;;;;;;4927975;29;20035;-73
2022/03/11 11:17:41;;;;;;;6.88;4.00;;;22.10;56.60;;;;;;4926015;29;20068;-74
2022/03/11 11:20:38;;;;;;;6.28;3.70;;;22.10;55.50;;;;;;4928886;29;20027;-76
2022/03/11 11:23:06;;;;;;;5.38;3.50;;;20.60;53.60;;;;;;4930216;29;20043;-73
2022/03/11 11:25:33;;;;;;;9.63;4.20;;;20.40;55.50;;;;;;4935982;29;20106;-74
2022/03/11 11:28:12;;;;;;;6.75;4.05;;;23.50;57.20;;;;;;4932073;29;20080;-74
2022/03/11 11:30:38;;;;;;;4.75;3.80;;;22.70;54.80;;;;;;4925659;29;20036;-73
2022/03/11 11:33:05;;;;;;;6.03;3.70;;;20.30;56.10;;;;;;4932953;29;20032;-73
2022/03/11 11:35:34;;;;;;;9.13;4.32;;;18.90;55.20;;;;;;4932330;29;20036;-73
2022/03/11 11:38:05;;;;;;;10.20;3.78;;;21.90;56.20;;;;;;4936342;29;20035;-73
2022/03/11 11:40:39;;;;;;;11.00;4.60;;;21.00;56.00;;;;;;4933502;29;20091;-73
2022/03/11 11:43:26;;;;;;;8.52;4.07;;;21.60;54.70;;;;;;4936126;29;20059;-73
2022/03/11 11:46:11;;;;;;;10.25;4.43;;;22.80;54.90;;;;;;4938254;29;20027;-74
2022/03/11 11:48:45;;;;;;;8.80;4.25;;;21.20;54.00;;;;;;4938891;29;20550;-73
2022/03/11 11:51:13;;;;;;;13.18;5.07;;;18.70;54.90;;;;;;4934215;29;20451;-72
2022/03/11 11:53:42;;;;;;;11.90;4.70;;;20.30;55.60;;;;;;4926121;29;20108;-73
2022/03/11 11:56:35;;;;;;;8.15;4.68;;;20.50;56.30;;;;;;4931952;29;20107;-72
2022/03/11 11:59:04;;;;;;;7.90;4.40;;;22.80;55.00;;;;;;4933266;29;20071;-71
2022/03/11 12:01:50;;;;;;;10.70;4.75;;;18.60;54.80;;;;;;4931771;29;20035;-72
2022/03/11 12:04:36;;;;;;;14.55;5.57;;;21.20;54.40;;;;;;4931485;29;20135;-72
2022/03/11 12:07:17;;;;;;;9.02;4.93;;;21.30;54.50;;;;;;4930902;29;20547;-72
2022/03/11 12:09:58;;;;;;;12.07;5.55;;;22.60;55.50;;;;;;4926357;29;20028;-72
2022/03/11 12:12:32;;;;;;;11.70;6.15;;;22.20;58.00;;;;;;4934114;29;20067;-72
2022/03/11 12:15:04;;;;;;;11.27;5.60;;;21.80;56.10;;;;;;4937278;29;20030;-72
2022/03/11 12:17:41;;;;;;;8.63;5.00;;;18.00;55.50;;;;;;4942732;29;20019;-73
2022/03/11 12:20:32;;;;;;;10.63;5.93;;;19.80;54.50;;;;;;4936905;29;20531;-73
2022/03/11 12:23:11;;;;;;;11.25;5.70;;;19.80;54.10;;;;;;4935379;29;20029;-73
2022/03/11 12:25:46;;;;;;;10.63;5.50;;;21.30;55.00;;;;;;4947090;29;20038;-73
2022/03/11 12:28:32;;;;;;;17.88;6.30;;;22.30;57.10;;;;;;4940900;28;20059;-73
2022/03/11 12:31:23;;;;;;;10.35;5.38;;;21.30;54.70;;;;;;4938766;29;20503;-73
2022/03/11 12:33:50;;;;;;;18.20;6.05;;;21.10;54.90;;;;;;4943076;29;20082;-72
2022/03/11 12:36:21;;;;;;;12.90;5.35;;;22.30;57.60;;;;;;4941713;29;20042;-72
2022/03/11 12:38:48;;;;;;;16.42;6.80;;;19.60;55.10;;;;;;4940758;29;20027;-72
2022/03/11 12:41:17;;;;;;;18.20;6.68;;;24.40;58.80;;;;;;4936557;28;20050;-71
2022/03/11 12:43:45;;;;;;;16.17;5.88;;;22.40;57.20;;;;;;4931108;29;20063;-72
2022/03/11 12:46:14;;;;;;;14.30;5.38;;;23.70;58.00;;;;;;4934121;29;20040;-71
2022/03/11 12:48:44;;;;;;;10.63;5.45;;;18.60;55.70;;;;;;4933286;29;20119;-71